Time;durP1;ratioP1;P1;durP2;ratioP2;P2;SDS_P1;SDS_P2;PMS_P1;PMS_P2;Temp;Humidity;BMP_temperature;BMP_pressure;BME280_temperature;BME280_humidity;BME280_pressure;Samples;Min_cycle;Max_cycle;Signal;HPM_P1;HPM_P2
2024/03/12 00:02:40;;;;;;;6.35;2.65;;;;;;;11.33;82.52;99712.94;4995723;28;20057;-77
2024/03/12 00:05:44;;;;;;;3.85;1.75;;;;;;;11.62;81.58;99708.97;4996036;28;20061;-77
2024/03/12 00:08:49;;;;;;;4.97;2.22;;;;;;;11.04;83.63;99703.28;4984915;28;20049;-77
2024/03/12 00:11:53;;;;;;;3.67;1.63;;;;;;;11.44;82.66;99704.63;4996410;28;20069;-77
2024/03/12 00:14:58;;;;;;;3.97;1.83;;;;;;;11.42;82.64;99712.00;4996897;28;20045;-78
2024/03/12 00:18:05;;;;;;;11.18;5.75;;;;;;;11.21;83.61;99714.19;4996781;28;20045;-77
2024/03/12 00:21:10;;;;;;;9.38;3.17;;;;;;;11.52;82.09;99716.28;4996411;28;20051;-77
2024/03/12 00:24:15;;;;;;;7.15;2.20;;;;;;;11.36;82.89;99707.22;4995392;28;20050;-77
2024/03/12 00:27:19;;;;;;;5.05;1.77;;;;;;;11.25;83.21;99710.19;4996179;28;20149;-77
2024/03/12 00:30:28;;;;;;;4.90;1.63;;;;;;;11.33;82.38;99712.94;4996585;28;20402;-77
2024/03/12 00:33:35;;;;;;;5.63;1.75;;;;;;;11.36;82.02;99715.28;4996162;28;20045;-77
2024/03/12 00:36:41;;;;;;;2.88;1.33;;;;;;;11.35;82.73;99713.63;4996328;28;20057;-77
2024/03/12 00:39:46;;;;;;;5.88;2.05;;;;;;;11.36;82.65;99716.16;4997447;28;20481;-77
2024/03/12 00:42:52;;;;;;;7.65;3.35;;;;;;;11.39;82.27;99709.63;5002899;28;20049;-78
2024/03/12 00:45:57;;;;;;;7.38;2.22;;;;;;;11.17;83.00;99715.47;4996704;28;20057;-77
2024/03/12 00:49:01;;;;;;;4.53;1.50;;;;;;;11.13;83.91;99724.84;4996399;28;20061;-77
2024/03/12 00:52:06;;;;;;;4.55;2.00;;;;;;;11.14;83.40;99724.69;4995685;28;20053;-77
2024/03/12 00:55:16;;;;;;;4.65;1.80;;;;;;;11.03;83.32;99719.56;4995894;28;20065;-76
2024/03/12 00:58:21;;;;;;;6.00;1.30;;;;;;;11.06;83.06;99720.06;4996166;28;20053;-77
2024/03/12 01:01:26;;;;;;;5.63;1.45;;;;;;;11.26;82.80;99717.25;4997016;28;20407;-77
2024/03/12 01:04:31;;;;;;;2.50;1.17;;;;;;;11.01;83.67;99719.69;5015069;28;20536;-77
2024/03/12 01:07:38;;;;;;;3.42;1.63;;;;;;;11.05;83.55;99713.03;5014507;28;20069;-77
2024/03/12 01:10:42;;;;;;;4.55;1.15;;;;;;;11.02;82.71;99713.34;5015314;28;20064;-78
2024/03/12 01:13:50;;;;;;;5.13;1.70;;;;;;;10.61;83.93;99715.75;5015340;28;20048;-77
2024/03/12 01:16:55;;;;;;;5.38;1.30;;;;;;;10.76;84.69;99714.22;5015246;28;20397;-78
2024/03/12 01:19:59;;;;;;;5.40;1.70;;;;;;;10.96;83.06;99713.09;5015274;28;20065;-77
2024/03/12 01:23:07;;;;;;;2.65;1.27;;;;;;;10.99;82.36;99708.25;5003239;28;20052;-77
2024/03/12 01:26:12;;;;;;;6.75;1.20;;;;;;;10.85;82.58;99710.63;5014690;28;20512;-77
2024/03/12 01:29:17;;;;;;;3.00;1.45;;;;;;;10.98;81.97;99714.66;5015263;28;20049;-77
2024/03/12 01:32:21;;;;;;;3.00;1.77;;;;;;;10.81;82.77;99714.63;5015045;28;20045;-77
2024/03/12 01:35:29;;;;;;;3.78;1.15;;;;;;;10.88;81.80;99705.81;5014574;28;20049;-77
2024/03/12 01:38:34;;;;;;;4.70;1.52;;;;;;;10.84;81.72;99712.47;5014775;28;20409;-77
2024/03/12 01:41:41;;;;;;;4.53;1.60;;;;;;;10.92;81.99;99706.34;5015031;28;20053;-77
2024/03/12 01:44:45;;;;;;;3.85;1.17;;;;;;;10.69;81.86;99705.91;5015609;28;20049;-77
2024/03/12 01:47:51;;;;;;;2.67;1.00;;;;;;;10.69;82.13;99708.59;5014986;28;20052;-77
2024/03/12 01:50:56;;;;;;;3.88;0.98;;;;;;;10.74;82.32;99713.56;5014761;28;20113;-77
2024/03/12 01:54:03;;;;;;;4.88;1.50;;;;;;;10.87;81.19;99711.31;5014768;28;20057;-77
2024/03/12 01:57:07;;;;;;;4.43;1.00;;;;;;;10.74;81.78;99717.06;5014689;28;20057;-77
2024/03/12 02:00:15;;;;;;;4.30;1.20;;;;;;;10.70;81.47;99710.31;5014765;28;20159;-78
2024/03/12 02:03:19;;;;;;;4.90;1.10;;;;;;;10.74;80.98;99714.38;5014345;28;20057;-77
2024/03/12 02:06:23;;;;;;;3.92;1.15;;;;;;;10.68;81.88;99709.63;5013735;28;20061;-77
2024/03/12 02:09:28;;;;;;;5.13;0.90;;;;;;;10.51;82.45;99717.63;5014431;28;20073;-77
2024/03/12 02:12:33;;;;;;;4.85;0.85;;;;;;;10.64;81.81;99713.59;5013844;28;20065;-77
2024/03/12 02:15:38;;;;;;;4.13;1.23;;;;;;;10.87;81.39;99716.69;4992974;28;20053;-77
2024/03/12 02:18:43;;;;;;;3.28;1.10;;;;;;;10.75;81.31;99710.69;4999184;28;20053;-77
2024/03/12 02:21:48;;;;;;;2.75;1.00;;;;;;;10.77;80.65;99714.06;5006706;28;20052;-78
2024/03/12 02:24:53;;;;;;;3.05;1.00;;;;;;;10.76;80.86;99714.22;4993138;28;20057;-77
2024/03/12 02:27:58;;;;;;;7.05;1.40;;;;;;;10.68;81.00;99720.34;4992387;28;20444;-77
2024/03/12 02:31:06;;;;;;;7.00;2.65;;;;;;;10.77;80.62;99719.44;4992751;28;20053;-77
2024/03/12 02:34:11;;;;;;;2.75;1.25;;;;;;;10.81;81.13;99718.13;4980940;28;20073;-77
2024/03/12 02:37:16;;;;;;;3.95;1.10;;;;;;;10.61;81.08;99727.31;5003921;28;20198;-76
2024/03/12 02:40:20;;;;;;;2.08;1.00;;;;;;;10.92;80.43;99725.13;5011852;28;20045;-76
2024/03/12 02:43:25;;;;;;;2.42;1.23;;;;;;;10.68;79.78;99725.72;5011887;28;20559;-76
2024/03/12 02:46:29;;;;;;;2.80;1.10;;;;;;;10.88;79.45;99719.25;5026206;28;20069;-76
2024/03/12 02:49:35;;;;;;;3.45;1.02;;;;;;;11.08;78.91;99718.06;5033842;28;20053;-76
2024/03/12 02:52:41;;;;;;;2.53;1.02;;;;;;;10.97;78.95;99728.19;5033594;28;20040;-76
2024/03/12 02:55:46;;;;;;;2.08;0.80;;;;;;;10.78;79.21;99723.81;5033600;28;20040;-76
2024/03/12 02:58:50;;;;;;;2.65;0.95;;;;;;;10.89;78.82;99731.66;5032920;28;20547;-76
2024/03/12 03:01:55;;;;;;;3.40;0.80;;;;;;;10.78;79.16;99739.94;5033753;28;20056;-76
2024/03/12 03:05:00;;;;;;;2.92;0.68;;;;;;;11.04;78.07;99742.72;5033437;28;20404;-76
2024/03/12 03:10:30;;;;;;;5.28;0.88;;;;;;;10.60;79.64;99739.03;5033587;28;20037;-76
2024/03/12 03:13:35;;;;;;;3.53;1.20;;;;;;;11.07;77.56;99748.63;5020509;28;20045;-76
2024/03/12 03:16:40;;;;;;;3.85;1.15;;;;;;;10.84;77.97;99749.19;5033513;28;20052;-76
2024/03/12 03:19:45;;;;;;;3.40;0.90;;;;;;;10.90;77.84;99748.59;5033394;28;20060;-76
2024/03/12 03:22:49;;;;;;;5.43;1.00;;;;;;;10.40;79.23;99743.66;5032924;28;20121;-76
2024/03/12 03:25:54;;;;;;;4.18;1.13;;;;;;;10.47;79.80;99749.28;5036001;28;20068;-76
2024/03/12 03:28:58;;;;;;;3.03;1.13;;;;;;;10.59;78.78;99745.38;5017242;28;20049;-76
2024/03/12 03:32:06;;;;;;;6.00;1.45;;;;;;;10.91;77.41;99740.38;5016746;28;20053;-76
2024/03/12 03:35:11;;;;;;;3.03;0.93;;;;;;;10.51;78.74;99741.78;5017206;28;20057;-76
2024/03/12 03:38:15;;;;;;;3.72;0.73;;;;;;;10.65;77.74;99738.59;5016307;28;20057;-76
2024/03/12 03:41:20;;;;;;;5.72;1.00;;;;;;;10.55;78.22;99746.69;5016915;28;20057;-76
2024/03/12 03:44:24;;;;;;;3.05;1.02;;;;;;;10.50;78.42;99754.34;5016875;28;20045;-76
2024/03/12 03:47:34;;;;;;;5.55;1.08;;;;;;;10.39;78.81;99752.69;5016586;28;20531;-76
2024/03/12 03:50:38;;;;;;;5.55;1.25;;;;;;;10.47;78.28;99753.81;5016904;28;20397;-76
2024/03/12 03:53:43;;;;;;;2.28;1.10;;;;;;;10.51;77.90;99761.41;5016916;28;20049;-76
2024/03/12 03:56:48;;;;;;;5.00;1.45;;;;;;;10.50;78.45;99757.03;5017238;28;20044;-77
2024/03/12 03:59:53;;;;;;;4.75;0.90;;;;;;;10.42;77.54;99762.28;5027345;28;20045;-76
2024/03/12 04:02:57;;;;;;;3.58;1.10;;;;;;;10.53;77.26;99762.09;5029026;28;20048;-77
2024/03/12 04:06:02;;;;;;;3.30;1.05;;;;;;;10.53;77.43;99761.25;5016833;28;20052;-76
2024/03/12 04:09:08;;;;;;;3.47;0.98;;;;;;;10.56;77.39;99766.34;5016483;28;20053;-77
2024/03/12 04:12:12;;;;;;;3.13;1.10;;;;;;;10.44;77.41;99766.50;5033590;28;20404;-76
2024/03/12 04:15:18;;;;;;;5.28;0.90;;;;;;;10.93;75.87;99767.09;5036431;28;20048;-77
2024/03/12 04:18:22;;;;;;;2.25;1.00;;;;;;;11.18;74.66;99773.59;5036170;28;20051;-76
2024/03/12 04:21:27;;;;;;;4.35;1.00;;;;;;;11.25;74.31;99777.34;5036325;28;20515;-76
2024/03/12 04:24:32;;;;;;;3.70;1.00;;;;;;;11.27;74.00;99775.34;5036178;28;20496;-76
2024/03/12 04:27:37;;;;;;;2.80;0.93;;;;;;;11.25;74.00;99783.56;5035725;28;20049;-76
2024/03/12 04:30:42;;;;;;;4.57;0.98;;;;;;;11.17;74.03;99779.94;5035964;28;20057;-76
2024/03/12 04:33:47;;;;;;;1.88;0.77;;;;;;;11.18;74.55;99785.19;5035618;28;20053;-76
2024/03/12 04:36:51;;;;;;;2.10;0.80;;;;;;;11.21;73.70;99784.84;5035843;28;20053;-76
2024/03/12 04:39:56;;;;;;;3.67;0.82;;;;;;;11.19;74.10;99788.69;5035833;28;20052;-77
2024/03/12 04:43:02;;;;;;;6.13;1.02;;;;;;;11.15;74.18;99793.53;5035610;28;20053;-77
2024/03/12 04:46:06;;;;;;;2.75;1.17;;;;;;;11.15;73.91;99792.69;5035800;28;20056;-77
2024/03/12 04:49:11;;;;;;;3.10;0.63;;;;;;;11.08;74.13;99803.19;5035537;28;20068;-76
2024/03/12 04:52:16;;;;;;;2.80;0.68;;;;;;;11.04;74.17;99805.31;5035663;28;20064;-76
2024/03/12 04:55:20;;;;;;;2.65;0.70;;;;;;;10.92;74.55;99809.22;5035763;28;20049;-76
2024/03/12 04:58:25;;;;;;;2.00;0.98;;;;;;;10.92;74.05;99813.75;5035553;28;20048;-77
2024/03/12 05:01:30;;;;;;;2.10;0.77;;;;;;;10.99;74.30;99821.03;5035518;28;20053;-77
2024/03/12 05:04:34;;;;;;;2.15;0.80;;;;;;;10.86;74.52;99825.09;5035517;28;20480;-76
2024/03/12 05:07:39;;;;;;;3.20;0.85;;;;;;;10.80;74.32;99826.53;5035398;28;20388;-77
2024/03/12 05:10:43;;;;;;;1.67;0.80;;;;;;;10.69;74.97;99824.03;5034823;28;20075;-76
2024/03/12 05:13:48;;;;;;;4.25;0.90;;;;;;;10.55;75.27;99826.34;5034730;28;20052;-76
2024/03/12 05:16:54;;;;;;;4.78;1.73;;;;;;;10.58;75.05;99826.91;5034986;28;20056;-77
2024/03/12 05:19:59;;;;;;;2.47;0.80;;;;;;;10.37;75.84;99832.47;5035115;28;20056;-76
2024/03/12 05:23:04;;;;;;;2.20;0.80;;;;;;;10.37;75.65;99842.38;5035112;28;20053;-76
2024/03/12 05:26:08;;;;;;;2.40;0.80;;;;;;;10.26;75.81;99842.56;5032103;28;20049;-76
2024/03/12 05:29:13;;;;;;;5.53;1.00;;;;;;;10.12;76.18;99846.53;5035253;28;20053;-76
2024/03/12 05:32:18;;;;;;;2.13;0.80;;;;;;;10.12;76.34;99840.34;5022798;28;20052;-76
2024/03/12 05:35:25;;;;;;;3.40;0.60;;;;;;;10.12;76.58;99840.34;5035312;28;20523;-76
2024/03/12 05:38:33;;;;;;;4.30;1.10;;;;;;;10.15;76.24;99845.38;5045345;28;20048;-76
2024/03/12 05:41:48;;;;;;;3.00;0.98;;;;;;;10.18;75.91;99854.00;5051523;28;20056;-74
2024/03/12 05:48:17;;;;;;;4.13;1.00;;;;;;;10.50;75.19;99856.31;5021795;28;20048;-76
2024/03/12 05:51:22;;;;;;;7.50;1.40;;;;;;;10.34;75.70;99861.47;5034416;28;20392;-77
2024/03/12 05:54:27;;;;;;;6.10;1.38;;;;;;;10.54;74.80;99875.66;5034556;28;20052;-76
2024/03/12 05:57:33;;;;;;;4.50;1.05;;;;;;;10.56;74.60;99882.56;5034544;28;20053;-75
2024/03/12 06:00:38;;;;;;;2.63;0.88;;;;;;;10.48;75.50;99895.00;5021641;28;20056;-76
2024/03/12 06:03:43;;;;;;;4.72;1.20;;;;;;;10.48;75.33;99895.00;5021748;28;20053;-76
2024/03/12 06:06:47;;;;;;;17.17;1.48;;;;;;;11.02;74.29;99903.16;5014735;28;20041;-76
2024/03/12 06:09:53;;;;;;;3.13;0.90;;;;;;;11.21;72.81;99902.22;5014330;28;20048;-76
2024/03/12 06:12:58;;;;;;;4.93;1.10;;;;;;;11.13;73.01;99911.84;5014101;28;20056;-76
2024/03/12 06:16:03;;;;;;;3.90;1.00;;;;;;;12.25;70.11;99907.81;5014510;28;20049;-76
2024/03/12 06:19:11;;;;;;;2.47;0.80;;;;;;;12.60;67.37;99918.53;5014397;28;20045;-76
2024/03/12 06:22:16;;;;;;;2.95;0.77;;;;;;;13.03;66.80;99918.44;5014133;28;20064;-75
2024/03/12 06:25:22;;;;;;;6.10;1.77;;;;;;;13.69;63.26;99923.09;4994329;28;20053;-78
2024/03/12 06:28:30;;;;;;;4.80;1.55;;;;;;;13.08;64.47;99933.31;4994944;28;20378;-78
2024/03/12 06:31:34;;;;;;;3.10;1.10;;;;;;;12.92;65.01;99934.03;4982862;28;20057;-79
2024/03/12 06:34:39;;;;;;;3.35;1.27;;;;;;;12.79;64.71;99939.84;4996643;28;20122;-78
2024/03/12 06:37:44;;;;;;;7.00;1.55;;;;;;;12.88;64.64;99946.16;5013587;28;20057;-77
2024/03/12 06:40:48;;;;;;;9.35;1.48;;;;;;;13.55;63.03;99948.84;4983598;28;20062;-77
2024/03/12 06:43:53;;;;;;;2.28;0.80;;;;;;;14.14;60.19;99955.06;4999425;28;20048;-77
2024/03/12 06:46:57;;;;;;;4.20;1.35;;;;;;;15.04;56.46;99956.69;5019904;28;20064;-77
2024/03/12 06:50:01;;;;;;;3.65;1.17;;;;;;;15.15;56.85;99964.44;5033298;28;20056;-77
2024/03/12 06:53:06;;;;;;;18.33;9.18;;;;;;;15.88;54.82;99963.16;5031911;28;20381;-77
2024/03/12 06:56:12;;;;;;;11.43;5.97;;;;;;;16.62;52.19;99969.75;5033953;28;20488;-75
2024/03/12 06:59:17;;;;;;;6.55;2.20;;;;;;;16.66;51.60;99974.66;5036003;28;20056;-74
2024/03/12 07:02:22;;;;;;;8.55;1.52;;;;;;;17.24;49.73;99982.00;5037751;28;20052;-74
2024/03/12 07:05:29;;;;;;;5.70;1.65;;;;;;;17.10;50.20;99980.13;5037687;28;20052;-75
2024/03/12 07:08:43;;;;;;;2.83;1.00;;;;;;;16.67;49.90;99980.88;5025512;28;20527;-75
2024/03/12 07:11:47;;;;;;;;;;;;;;;16.23;51.45;99986.09;5025323;28;20048;-74
2024/03/12 07:14:54;;;;;;;5.35;1.48;;;;;;;16.01;52.94;99986.94;5037178;28;19917;-76
2024/03/12 07:17:59;;;;;;;4.22;1.02;;;;;;;15.64;53.57;99982.22;5037039;28;20052;-76
2024/03/12 07:21:05;;;;;;;4.80;1.10;;;;;;;15.55;53.96;99986.81;5036629;28;20052;-76
2024/03/12 07:24:12;;;;;;;5.20;1.08;;;;;;;16.31;52.36;99988.78;5036510;28;20048;-79
2024/03/12 07:27:16;;;;;;;4.25;1.40;;;;;;;16.70;51.18;99985.94;5037013;28;20048;-80
2024/03/12 07:30:21;;;;;;;2.40;1.10;;;;;;;17.58;47.50;99995.03;5037194;28;20060;-78
2024/03/12 07:33:27;;;;;;;2.35;1.00;;;;;;;17.76;47.13;99991.94;5030876;28;20113;-77
2024/03/12 07:36:35;;;;;;;3.20;1.00;;;;;;;18.08;46.51;99984.19;5017210;28;20057;-73
2024/03/12 07:39:41;;;;;;;3.83;1.27;;;;;;;18.52;45.75;99988.63;5017508;28;20113;-74
2024/03/12 07:42:46;;;;;;;2.92;1.13;;;;;;;18.49;45.78;100005.38;5020962;28;20053;-74
2024/03/12 07:45:51;;;;;;;4.70;1.48;;;;;;;18.53;45.29;100001.22;5030478;28;20065;-74
2024/03/12 07:48:56;;;;;;;4.43;1.42;;;;;;;18.89;43.94;100003.84;5017588;28;20053;-76
2024/03/12 07:52:02;;;;;;;3.83;1.40;;;;;;;20.41;41.47;100005.34;5016015;28;20052;-76
2024/03/12 07:55:09;;;;;;;6.93;1.33;;;;;;;21.71;38.91;100008.25;5017412;28;20381;-73
2024/03/12 07:58:14;;;;;;;2.95;0.98;;;;;;;23.28;35.31;100004.59;5004655;28;20057;-74
2024/03/12 08:01:20;;;;;;;3.65;1.45;;;;;;;25.13;31.83;100005.56;5026477;28;20068;-74
2024/03/12 08:04:25;;;;;;;5.78;0.90;;;;;;;27.51;29.19;100001.03;5036974;28;20068;-75
2024/03/12 08:07:30;;;;;;;2.17;0.88;;;;;;;29.37;26.63;100004.28;5036115;28;20052;-74
2024/03/12 08:10:36;;;;;;;4.13;1.30;;;;;;;30.85;25.10;99995.25;5031299;28;20049;-74
2024/03/12 08:13:41;;;;;;;2.83;0.90;;;;;;;32.54;22.71;100007.41;5028568;28;20048;-77
2024/03/12 08:16:46;;;;;;;3.47;0.93;;;;;;;32.78;22.66;100008.38;5029273;28;20048;-78
2024/03/12 08:19:50;;;;;;;3.03;0.93;;;;;;;33.65;21.54;100014.94;5022290;28;20049;-76
2024/03/12 08:22:55;;;;;;;2.60;0.82;;;;;;;34.35;21.11;100015.22;4996661;28;20061;-77
2024/03/12 08:26:01;;;;;;;3.03;1.08;;;;;;;34.72;21.52;100006.91;4996864;28;20045;-76
2024/03/12 08:29:07;;;;;;;3.58;1.27;;;;;;;35.15;20.88;100008.47;4996813;28;20485;-77
2024/03/12 08:32:13;;;;;;;2.10;1.00;;;;;;;35.76;20.30;100010.19;4996894;28;20053;-86
2024/03/12 08:35:18;;;;;;;2.03;0.57;;;;;;;35.25;20.40;100010.28;4996367;28;20054;-78
2024/03/12 08:38:23;;;;;;;2.85;0.80;;;;;;;34.74;21.12;100012.19;4995651;28;20503;-72
2024/03/12 08:41:28;;;;;;;2.35;0.70;;;;;;;34.87;21.45;100009.47;5025667;28;20072;-74
2024/03/12 08:44:33;;;;;;;4.60;0.93;;;;;;;35.14;21.63;100008.78;5033778;28;20045;-76
2024/03/12 08:47:38;;;;;;;2.97;0.75;;;;;;;35.36;21.26;100013.72;5034104;28;20068;-75
2024/03/12 08:50:42;;;;;;;2.22;1.00;;;;;;;35.24;21.54;100006.63;5028179;28;20096;-75
2024/03/12 08:53:46;;;;;;;2.28;0.73;;;;;;;35.53;21.59;100009.22;5028297;28;20061;-74
2024/03/12 08:56:51;;;;;;;2.53;0.88;;;;;;;35.95;21.28;100004.53;5024124;28;20048;-75
2024/03/12 08:59:55;;;;;;;2.45;0.70;;;;;;;36.30;20.77;100007.41;5028215;28;20060;-77
2024/03/12 09:03:01;;;;;;;4.22;0.98;;;;;;;37.20;19.30;100009.28;5005483;28;20052;-77
2024/03/12 09:06:08;;;;;;;2.95;1.00;;;;;;;37.62;18.70;100007.91;5002140;28;20053;-76
2024/03/12 09:09:15;;;;;;;2.30;0.68;;;;;;;38.21;18.88;100007.34;5014704;28;20064;-75
2024/03/12 09:12:21;;;;;;;2.05;0.70;;;;;;;38.09;18.63;100009.13;5012538;28;20061;-75
2024/03/12 09:15:27;;;;;;;8.18;0.85;;;;;;;38.10;19.49;100016.38;5016529;28;20056;-74
2024/03/12 09:18:34;;;;;;;1.70;0.55;;;;;;;36.96;19.13;100015.16;4973727;28;20497;-75
2024/03/12 09:21:39;;;;;;;1.75;0.50;;;;;;;37.87;19.15;100020.41;4973676;28;20061;-74
2024/03/12 09:24:43;;;;;;;1.52;0.68;;;;;;;36.84;18.93;100011.28;4978361;28;20147;-75
2024/03/12 09:27:48;;;;;;;1.80;0.50;;;;;;;37.58;18.37;100021.72;4973797;28;20107;-74
2024/03/12 09:30:54;;;;;;;2.80;0.55;;;;;;;37.37;18.46;100030.94;4973643;28;20062;-74
2024/03/12 09:34:00;;;;;;;1.27;0.40;;;;;;;37.88;18.25;100024.84;4973453;28;20050;-74
2024/03/12 09:37:05;;;;;;;2.25;0.70;;;;;;;35.95;19.38;100027.69;4973195;28;20073;-76
2024/03/12 09:40:11;;;;;;;2.22;0.50;;;;;;;33.62;20.49;100028.59;4973461;28;20078;-74
2024/03/12 09:43:18;;;;;;;1.63;0.52;;;;;;;31.34;23.19;100008.56;4973178;28;20058;-74
2024/03/12 09:46:23;;;;;;;1.40;0.70;;;;;;;29.37;24.97;100020.88;4973004;28;20093;-75
2024/03/12 09:49:29;;;;;;;1.60;0.80;;;;;;;28.33;26.21;100014.84;5002037;28;20044;-75
2024/03/12 09:52:35;;;;;;;1.35;0.50;;;;;;;26.98;27.59;100029.09;5013967;28;20429;-75
2024/03/12 09:55:41;;;;;;;1.42;0.50;;;;;;;26.99;27.95;100025.25;5014238;28;20049;-75
2024/03/12 09:58:47;;;;;;;1.98;0.45;;;;;;;26.09;28.09;100012.44;5001911;28;20041;-75
2024/03/12 10:01:53;;;;;;;1.45;0.40;;;;;;;25.68;28.41;100021.72;4999898;28;20166;-73
2024/03/12 10:04:57;;;;;;;1.27;0.40;;;;;;;24.91;29.06;100015.44;4994365;28;20058;-74
2024/03/12 10:08:14;;;;;;;1.15;0.47;;;;;;;24.63;29.39;100028.13;4982440;28;20057;-74
2024/03/12 10:11:19;;;;;;;1.38;0.50;;;;;;;23.98;30.07;100033.38;4994389;28;20057;-73
2024/03/12 10:14:24;;;;;;;2.50;0.85;;;;;;;23.49;29.63;100026.13;4994407;28;20069;-73
2024/03/12 10:17:28;;;;;;;1.55;0.80;;;;;;;23.09;30.62;100024.78;4982273;28;20532;-73
2024/03/12 10:20:45;;;;;;;3.30;0.60;;;;;;;22.91;31.33;100027.47;4994217;28;20397;-74
2024/03/12 10:23:50;;;;;;;1.40;0.40;;;;;;;22.55;30.84;100034.41;4981927;28;20505;-73
2024/03/12 10:27:02;;;;;;;1.73;0.50;;;;;;;21.82;32.09;100035.78;4994080;28;20061;-74
2024/03/12 10:30:24;;;;;;;1.85;0.57;;;;;;;21.66;32.69;100035.38;4994049;28;20057;-74
2024/03/12 10:33:30;;;;;;;1.45;0.50;;;;;;;21.41;32.41;100037.94;4993984;28;20509;-74
2024/03/12 10:36:36;;;;;;;1.20;0.40;;;;;;;21.42;32.68;100034.16;4994145;28;20065;-74
2024/03/12 10:39:42;;;;;;;1.38;0.40;;;;;;;21.19;33.39;100037.34;4993866;28;20049;-74
2024/03/12 10:42:57;;;;;;;1.15;0.55;;;;;;;21.04;34.43;100036.69;4994122;28;20061;-75
2024/03/12 10:46:02;;;;;;;1.25;0.50;;;;;;;20.87;33.91;100037.28;4981766;28;20069;-73
2024/03/12 10:49:12;;;;;;;2.13;0.70;;;;;;;20.86;34.00;100041.09;5006627;28;20061;-73
2024/03/12 10:52:20;;;;;;;1.88;0.40;;;;;;;20.53;34.27;100038.31;5013290;28;20069;-74
2024/03/12 10:55:25;;;;;;;1.77;0.65;;;;;;;20.55;35.06;100042.50;5013331;28;20061;-76
2024/03/12 10:58:33;;;;;;;4.57;0.50;;;;;;;20.63;35.48;100050.50;5001390;28;20045;-76
2024/03/12 11:01:41;;;;;;;2.60;0.70;;;;;;;20.86;35.36;100039.22;5005859;28;20057;-75
2024/03/12 11:04:48;;;;;;;2.22;0.60;;;;;;;20.80;36.51;100041.91;5030533;28;20060;-76
2024/03/12 11:07:57;;;;;;;1.63;0.50;;;;;;;20.72;37.40;100048.41;5033750;28;20053;-73
2024/03/12 11:11:08;;;;;;;4.80;0.70;;;;;;;20.64;36.75;100041.25;5033344;28;20048;-76
2024/03/12 11:14:15;;;;;;;1.77;0.60;;;;;;;20.53;36.27;100051.94;5020939;28;20064;-75
2024/03/12 11:17:27;;;;;;;2.00;0.85;;;;;;;20.30;36.16;100045.97;5020894;28;20097;-74
2024/03/12 11:20:33;;;;;;;1.55;0.57;;;;;;;20.38;35.21;100048.53;5032716;28;20045;-80
2024/03/12 11:23:38;;;;;;;1.95;0.65;;;;;;;20.40;35.22;100047.28;5032699;28;20076;-78
2024/03/12 11:26:51;;;;;;;2.17;0.90;;;;;;;20.40;37.21;100041.84;5031204;28;20053;-77
2024/03/12 11:30:08;;;;;;;2.85;1.10;;;;;;;20.20;38.01;100040.88;5011904;28;20053;-82
2024/03/12 11:33:41;;;;;;;4.03;1.30;;;;;;;20.18;38.65;100042.13;5025312;28;20507;-77
2024/03/12 11:36:48;;;;;;;2.55;1.13;;;;;;;20.18;38.54;100034.81;5010013;28;20069;-77
2024/03/12 11:40:28;;;;;;;3.88;1.17;;;;;;;19.95;37.32;100032.41;5011369;28;20053;-77
2024/03/12 11:43:40;;;;;;;2.67;1.17;;;;;;;20.05;38.47;100027.41;5011592;28;20053;-79
2024/03/12 11:46:45;;;;;;;1.90;0.90;;;;;;;20.01;40.22;100034.31;5015994;28;20053;-76
2024/03/12 11:49:50;;;;;;;2.88;1.42;;;;;;;20.01;40.13;100034.31;5015708;28;20078;-76
2024/03/12 11:53:14;;;;;;;4.93;1.25;;;;;;;20.10;39.03;100032.25;5015798;28;20049;-76
2024/03/12 11:56:19;;;;;;;2.22;1.00;;;;;;;20.01;40.23;100031.59;5016873;28;20064;-77
2024/03/12 11:59:23;;;;;;;2.63;1.30;;;;;;;20.12;39.63;100028.28;5016535;28;20068;-74
2024/03/12 12:02:28;;;;;;;3.30;1.20;;;;;;;20.08;38.59;100023.44;5015600;28;20062;-75
2024/03/12 12:05:35;;;;;;;2.13;1.10;;;;;;;20.05;38.55;100030.16;5016705;28;20069;-75
2024/03/12 12:08:40;;;;;;;2.60;1.00;;;;;;;19.95;38.99;100023.38;5016783;28;20053;-75
2024/03/12 12:11:44;;;;;;;2.50;1.20;;;;;;;20.13;38.37;100023.69;5021861;28;20125;-75
2024/03/12 12:14:49;;;;;;;2.50;0.90;;;;;;;20.15;38.85;100021.59;5004295;28;20053;-75
2024/03/12 12:18:09;;;;;;;2.35;0.82;;;;;;;20.17;38.17;100015.94;5016470;28;20045;-75
2024/03/12 12:21:16;;;;;;;1.80;0.80;;;;;;;20.19;37.53;100017.41;5016429;28;20060;-75
2024/03/12 12:24:24;;;;;;;1.88;0.70;;;;;;;20.22;37.45;100005.28;5016396;28;20065;-75
2024/03/12 12:27:32;;;;;;;5.18;1.27;;;;;;;20.35;38.28;100010.78;5016279;28;20077;-75
2024/03/12 12:30:37;;;;;;;3.70;0.82;;;;;;;20.19;38.47;100009.25;5016292;28;20057;-75
2024/03/12 12:33:45;;;;;;;2.10;0.80;;;;;;;20.27;37.54;100010.97;5015991;28;20053;-76
2024/03/12 12:36:51;;;;;;;1.63;0.70;;;;;;;20.27;38.57;100008.25;5010167;28;20072;-81
2024/03/12 12:39:58;;;;;;;2.92;0.90;;;;;;;20.24;38.32;100008.66;4997275;28;20062;-76
2024/03/12 12:43:06;;;;;;;2.72;0.73;;;;;;;20.38;37.82;100004.91;4986993;28;20058;-75
2024/03/12 12:46:25;;;;;;;2.35;0.73;;;;;;;20.33;38.21;99997.34;4997662;28;20397;-75
2024/03/12 12:49:32;;;;;;;2.22;1.00;;;;;;;20.27;37.37;99997.34;5008783;28;20048;-77
2024/03/12 12:52:40;;;;;;;2.05;0.90;;;;;;;20.37;37.37;100004.06;5024958;28;20058;-74
2024/03/12 12:55:45;;;;;;;3.00;1.05;;;;;;;20.45;37.83;99997.59;5032989;28;20052;-80
2024/03/12 12:58:51;;;;;;;3.65;0.90;;;;;;;20.47;38.56;99993.59;5004604;28;20500;-75
2024/03/12 13:01:56;;;;;;;1.58;0.60;;;;;;;20.47;38.60;99993.59;5013090;28;20060;-78
2024/03/12 13:05:03;;;;;;;2.20;0.95;;;;;;;20.44;38.84;99998.66;5014088;28;20500;-77
2024/03/12 13:08:29;;;;;;;3.55;0.80;;;;;;;20.41;39.14;99993.59;5002979;28;20056;-78
2024/03/12 13:11:34;;;;;;;3.20;0.88;;;;;;;20.52;37.51;99999.28;5011493;28;20397;-79
2024/03/12 13:14:41;;;;;;;2.10;0.70;;;;;;;20.54;38.29;100001.81;5014758;28;20512;-76
2024/03/12 13:17:46;;;;;;;2.55;0.70;;;;;;;20.68;39.02;99987.13;5013873;28;20110;-78
2024/03/12 13:20:51;;;;;;;2.15;0.73;;;;;;;20.66;38.75;99991.97;5014713;28;20041;-77
2024/03/12 13:23:56;;;;;;;2.00;0.77;;;;;;;20.69;38.90;99994.25;5014365;28;20061;-78
2024/03/12 13:27:00;;;;;;;1.50;0.75;;;;;;;20.55;38.87;99990.69;5013345;28;20044;-75
2024/03/12 13:30:08;;;;;;;1.38;0.60;;;;;;;20.74;38.19;99992.59;5012796;28;20045;-76
2024/03/12 13:33:12;;;;;;;2.38;0.70;;;;;;;20.82;37.20;99991.53;5013571;28;20045;-74
2024/03/12 13:36:22;;;;;;;1.40;0.50;;;;;;;20.85;37.30;99996.59;5014351;28;20053;-76
2024/03/12 13:39:26;;;;;;;1.30;0.50;;;;;;;20.82;37.54;99986.09;4994707;28;20053;-75
2024/03/12 13:42:32;;;;;;;4.90;0.60;;;;;;;20.84;36.35;99999.53;5003093;28;20503;-76
2024/03/12 13:45:48;;;;;;;1.25;0.60;;;;;;;20.90;36.88;99994.06;5014233;28;20061;-74
2024/03/12 13:49:15;;;;;;;1.30;0.55;;;;;;;20.90;37.42;99988.63;4975052;28;20118;-74
2024/03/12 13:52:20;;;;;;;1.88;0.50;;;;;;;20.89;35.43;99991.53;4976326;28;20065;-74
2024/03/12 13:55:33;;;;;;;0.93;0.35;;;;;;;20.79;34.78;99991.94;5011867;28;20045;-78
2024/03/12 13:58:38;;;;;;;3.50;0.47;;;;;;;20.91;33.91;99990.28;5011175;28;20150;-76
2024/03/12 14:01:45;;;;;;;2.20;0.43;;;;;;;20.89;33.86;99997.00;4996086;28;20049;-75
2024/03/12 14:04:51;;;;;;;0.60;0.30;;;;;;;20.89;31.80;99999.72;4981026;28;20065;-74
2024/03/12 14:07:56;;;;;;;0.70;0.30;;;;;;;20.84;31.55;100000.34;4990991;28;20218;-75
2024/03/12 14:11:02;;;;;;;0.77;0.30;;;;;;;20.90;32.04;100001.41;4982981;28;20053;-74
2024/03/12 14:14:10;;;;;;;0.85;0.30;;;;;;;20.87;31.76;100004.56;4988246;28;20433;-74
2024/03/12 14:17:14;;;;;;;2.67;0.38;;;;;;;20.83;31.97;100004.16;4995516;28;20056;-76
2024/03/12 14:20:20;;;;;;;0.80;0.20;;;;;;;20.97;30.69;100005.81;4966623;28;20080;-77
2024/03/12 14:23:26;;;;;;;0.43;0.20;;;;;;;20.95;30.69;100012.53;4956992;29;20054;-76
2024/03/12 14:26:30;;;;;;;1.20;0.30;;;;;;;20.85;30.87;100010.22;4974260;28;20058;-77
2024/03/12 14:29:35;;;;;;;1.50;0.30;;;;;;;20.83;30.42;100009.59;4972539;28;20136;-79
2024/03/12 14:32:40;;;;;;;0.75;0.30;;;;;;;20.87;29.94;100007.28;4971727;28;20055;-75
2024/03/12 14:35:47;;;;;;;0.75;0.30;;;;;;;20.82;30.84;100005.19;4972255;28;20054;-77
2024/03/12 14:38:51;;;;;;;0.82;0.30;;;;;;;20.82;30.96;100002.44;4971846;28;20414;-75